createdAt,value
2017-04-08T00:00:16.964Z,0
2017-04-08T00:01:18.396Z,0
2017-04-08T00:02:19.824Z,0
2017-04-08T00:03:21.250Z,0
2017-04-08T00:04:23.492Z,0
2017-04-08T00:05:24.919Z,0
2017-04-08T00:06:26.349Z,0
2017-04-08T00:07:27.778Z,0
2017-04-08T00:08:29.233Z,0
2017-04-08T00:09:30.660Z,0
2017-04-08T00:10:32.095Z,0
2017-04-08T00:11:33.523Z,0
2017-04-08T00:12:34.957Z,0
2017-04-08T00:13:36.400Z,0
2017-04-08T00:14:37.826Z,0
2017-04-08T00:15:39.250Z,0
2017-04-08T00:16:41.414Z,0
2017-04-08T00:17:42.844Z,0
2017-04-08T00:18:44.267Z,0
2017-04-08T00:19:45.703Z,0
2017-04-08T00:20:47.138Z,0
2017-04-08T00:21:48.565Z,0
2017-04-08T00:22:50.002Z,0
2017-04-08T00:23:51.446Z,0
2017-04-08T00:24:52.894Z,0
2017-04-08T00:25:54.328Z,0
2017-04-08T00:26:55.753Z,0
2017-04-08T00:27:57.189Z,0
2017-04-08T00:28:58.613Z,0
2017-04-08T00:30:00.043Z,0
2017-04-08T00:31:01.477Z,0
2017-04-08T00:32:02.903Z,0
2017-04-08T00:33:04.327Z,0
2017-04-08T00:34:06.733Z,0
2017-04-08T00:35:08.163Z,0
2017-04-08T00:36:09.590Z,0
2017-04-08T00:37:11.033Z,0
2017-04-08T00:38:12.463Z,0
2017-04-08T00:39:13.892Z,0
2017-04-08T00:40:15.321Z,0
2017-04-08T00:41:16.745Z,0
2017-04-08T00:42:18.179Z,0
2017-04-08T00:43:19.611Z,0
2017-04-08T00:44:21.037Z,0
2017-04-08T00:45:22.465Z,0
2017-04-08T00:46:23.895Z,0
2017-04-08T00:47:25.323Z,0
2017-04-08T00:48:26.753Z,0
2017-04-08T00:49:28.724Z,0
2017-04-08T00:50:30.158Z,0
2017-04-08T00:51:31.591Z,0
2017-04-08T00:52:33.009Z,0
2017-04-08T00:53:34.445Z,0
2017-04-08T00:54:35.867Z,0
2017-04-08T00:55:37.302Z,0
2017-04-08T00:56:38.727Z,0
2017-04-08T00:57:40.156Z,0
2017-04-08T00:58:41.579Z,0
2017-04-08T00:59:43.009Z,0
2017-04-08T01:00:44.437Z,0
2017-04-08T01:01:45.873Z,0
2017-04-08T01:02:47.302Z,0
2017-04-08T01:03:48.742Z,0
2017-04-08T01:04:50.175Z,0
2017-04-08T01:05:52.485Z,0
2017-04-08T01:06:53.912Z,0
2017-04-08T01:07:55.336Z,0
2017-04-08T01:08:56.780Z,0
2017-04-08T01:09:58.210Z,0
2017-04-08T01:10:59.630Z,0
2017-04-08T01:12:01.058Z,0
2017-04-08T01:13:02.491Z,0
2017-04-08T01:14:03.930Z,0
2017-04-08T01:15:05.360Z,0
2017-04-08T01:16:06.810Z,0
2017-04-08T01:17:08.233Z,0
2017-04-08T01:18:09.659Z,0
2017-04-08T01:19:11.082Z,0
2017-04-08T01:20:12.511Z,0
2017-04-08T01:21:13.942Z,0
2017-04-08T01:22:15.373Z,0
2017-04-08T01:23:16.796Z,0
2017-04-08T01:24:19.106Z,0
2017-04-08T01:25:20.538Z,0
2017-04-08T01:26:21.975Z,0
2017-04-08T01:27:23.407Z,0
2017-04-08T01:28:24.829Z,0
2017-04-08T01:29:26.810Z,0
2017-04-08T01:30:28.245Z,0
2017-04-08T01:31:29.669Z,0
2017-04-08T01:32:31.113Z,0
2017-04-08T01:33:32.541Z,0
2017-04-08T01:34:33.973Z,0
2017-04-08T01:35:35.414Z,0
2017-04-08T01:36:36.840Z,0
2017-04-08T01:37:38.270Z,0
2017-04-08T01:38:39.696Z,0
2017-04-08T01:39:41.131Z,0
2017-04-08T01:40:42.558Z,0
2017-04-08T01:41:43.987Z,0
2017-04-08T01:42:45.417Z,0
2017-04-08T01:43:46.849Z,0
2017-04-08T01:44:48.282Z,0
2017-04-08T01:45:49.711Z,0
2017-04-08T01:46:51.135Z,0
2017-04-08T01:47:52.574Z,0
2017-04-08T01:48:54.002Z,0
2017-04-08T01:49:55.431Z,0
2017-04-08T01:50:56.867Z,0
2017-04-08T01:51:58.299Z,0
2017-04-08T01:52:59.729Z,0
2017-04-08T01:54:01.156Z,0
2017-04-08T01:55:02.583Z,0
2017-04-08T01:56:04.014Z,0
2017-04-08T01:57:05.440Z,0
2017-04-08T01:58:06.868Z,0
2017-04-08T01:59:08.290Z,0
2017-04-08T02:00:09.716Z,0
2017-04-08T02:01:11.138Z,0
2017-04-08T02:02:12.564Z,0
2017-04-08T02:03:13.990Z,0
2017-04-08T02:04:15.417Z,0
2017-04-08T02:05:16.853Z,0
2017-04-08T02:06:18.280Z,0
2017-04-08T02:07:19.714Z,0
2017-04-08T02:08:21.141Z,0
2017-04-08T02:09:22.571Z,0
2017-04-08T02:10:23.998Z,0
2017-04-08T02:11:25.424Z,0
2017-04-08T02:12:26.850Z,0
2017-04-08T02:13:28.317Z,0
2017-04-08T02:14:29.738Z,0
2017-04-08T02:15:31.158Z,0
2017-04-08T02:16:32.586Z,0
2017-04-08T02:17:34.018Z,0
2017-04-08T02:18:35.443Z,0
2017-04-08T02:19:36.864Z,0
2017-04-08T02:20:38.300Z,0
2017-04-08T02:21:40.465Z,0
2017-04-08T02:22:41.902Z,0
2017-04-08T02:23:43.334Z,0
2017-04-08T02:24:44.757Z,0
2017-04-08T02:25:46.179Z,0
2017-04-08T02:26:47.616Z,0
2017-04-08T02:27:49.036Z,0
2017-04-08T02:28:50.451Z,0
2017-04-08T02:29:51.879Z,0
2017-04-08T02:30:53.308Z,0
2017-04-08T02:31:54.732Z,0
2017-04-08T02:32:56.160Z,0
2017-04-08T02:33:57.596Z,0
2017-04-08T02:34:59.019Z,0
2017-04-08T02:36:00.455Z,0
2017-04-08T02:37:01.886Z,0
2017-04-08T02:38:03.322Z,0
2017-04-08T02:39:04.754Z,0
2017-04-08T02:40:06.182Z,0
2017-04-08T02:41:07.610Z,0
2017-04-08T02:42:09.034Z,0
2017-04-08T02:43:10.472Z,0
2017-04-08T02:44:11.896Z,0
2017-04-08T02:45:13.338Z,0
2017-04-08T02:46:14.755Z,0
2017-04-08T02:47:16.184Z,0
2017-04-08T02:48:17.606Z,0
2017-04-08T02:49:19.037Z,0
2017-04-08T02:50:20.458Z,0
2017-04-08T02:51:21.884Z,0
2017-04-08T02:52:23.347Z,0
2017-04-08T02:53:24.739Z,0
2017-04-08T02:54:26.170Z,0
2017-04-08T02:55:27.600Z,0
2017-04-08T02:56:29.025Z,0
2017-04-08T02:57:30.450Z,0
2017-04-08T02:58:31.877Z,0
2017-04-08T02:59:33.307Z,0
2017-04-08T03:00:34.728Z,0
2017-04-08T03:01:36.152Z,0
2017-04-08T03:02:37.578Z,0
2017-04-08T03:03:39.002Z,0
2017-04-08T03:04:40.429Z,0
2017-04-08T03:05:41.852Z,0
2017-04-08T03:06:43.277Z,0
2017-04-08T03:07:44.701Z,0
2017-04-08T03:08:46.179Z,0
2017-04-08T03:09:47.612Z,0
2017-04-08T03:10:49.041Z,0
2017-04-08T03:11:50.478Z,0
2017-04-08T03:12:53.459Z,0
2017-04-08T03:13:54.891Z,0
2017-04-08T03:14:56.325Z,0
2017-04-08T03:15:57.749Z,0
2017-04-08T03:16:59.182Z,0
2017-04-08T03:18:00.610Z,0
2017-04-08T03:19:02.037Z,0
2017-04-08T03:20:03.459Z,0
2017-04-08T03:21:04.879Z,0
2017-04-08T03:22:06.303Z,0
2017-04-08T03:23:07.731Z,0
2017-04-08T03:24:09.164Z,0
2017-04-08T03:25:10.588Z,0
2017-04-08T03:26:12.023Z,0
2017-04-08T03:27:13.449Z,0
2017-04-08T03:28:14.868Z,0
2017-04-08T03:29:16.292Z,0
2017-04-08T03:30:17.715Z,0
2017-04-08T03:31:19.140Z,0
2017-04-08T03:32:20.567Z,0
2017-04-08T03:33:22.001Z,0
2017-04-08T03:34:23.987Z,0
2017-04-08T03:35:25.421Z,0
2017-04-08T03:36:26.846Z,0
2017-04-08T03:37:28.271Z,0
2017-04-08T03:38:29.709Z,0
2017-04-08T03:39:31.139Z,0
2017-04-08T03:40:32.571Z,0
2017-04-08T03:41:34.004Z,0
2017-04-08T03:42:35.433Z,0
2017-04-08T03:43:36.861Z,0
2017-04-08T03:44:38.290Z,0
2017-04-08T03:45:39.718Z,0
2017-04-08T03:46:41.140Z,0
2017-04-08T03:47:42.566Z,0
2017-04-08T03:48:43.989Z,0
2017-04-08T03:49:45.420Z,0
2017-04-08T03:50:46.853Z,0
2017-04-08T03:51:48.285Z,0
2017-04-08T03:52:49.705Z,0
2017-04-08T03:53:51.146Z,0
2017-04-08T03:54:53.189Z,0
2017-04-08T03:55:54.617Z,0
2017-04-08T03:56:56.048Z,0
2017-04-08T03:57:57.480Z,0
2017-04-08T03:58:58.913Z,0
2017-04-08T04:00:00.344Z,0
2017-04-08T04:01:01.769Z,0
2017-04-08T04:02:03.186Z,0
2017-04-08T04:03:04.652Z,0
2017-04-08T04:04:06.074Z,0
2017-04-08T04:05:07.508Z,0
2017-04-08T04:06:08.934Z,0
2017-04-08T04:07:11.242Z,0
2017-04-08T04:08:12.673Z,0
2017-04-08T04:09:14.097Z,0
2017-04-08T04:10:15.525Z,0
2017-04-08T04:11:16.952Z,0
2017-04-08T04:12:18.382Z,0
2017-04-08T04:13:19.815Z,0
2017-04-08T04:14:21.245Z,0
2017-04-08T04:15:22.667Z,0
2017-04-08T04:16:24.096Z,0
2017-04-08T04:17:25.522Z,0
2017-04-08T04:18:26.952Z,0
2017-04-08T04:19:28.380Z,0
2017-04-08T04:20:29.811Z,20
2017-04-08T04:21:31.234Z,20
2017-04-08T04:22:32.658Z,20
2017-04-08T04:23:34.085Z,20
2017-04-08T04:24:35.513Z,20
2017-04-08T04:25:36.939Z,20
2017-04-08T04:26:38.373Z,20
2017-04-08T04:27:39.800Z,20
2017-04-08T04:28:41.235Z,20
2017-04-08T04:29:42.660Z,20
2017-04-08T04:30:44.093Z,20
2017-04-08T04:31:45.523Z,20
2017-04-08T04:32:46.943Z,20
2017-04-08T04:33:48.372Z,20
2017-04-08T04:34:49.800Z,20
2017-04-08T04:35:51.235Z,24
2017-04-08T04:36:52.662Z,20
2017-04-08T04:37:54.091Z,24
2017-04-08T04:38:55.522Z,24
2017-04-08T04:39:57.932Z,24
2017-04-08T04:40:59.352Z,28
2017-04-08T04:42:00.796Z,28
2017-04-08T04:43:02.222Z,32
2017-04-08T04:44:03.651Z,28
2017-04-08T04:45:05.079Z,36
2017-04-08T04:46:06.513Z,40
2017-04-08T04:47:07.934Z,40
2017-04-08T04:48:09.363Z,44
2017-04-08T04:49:10.789Z,48
2017-04-08T04:50:12.213Z,48
2017-04-08T04:51:13.638Z,56
2017-04-08T04:52:15.075Z,60
2017-04-08T04:53:16.502Z,64
2017-04-08T04:54:17.940Z,68
2017-04-08T04:55:19.366Z,48
2017-04-08T04:56:20.799Z,76
2017-04-08T04:57:22.237Z,88
2017-04-08T04:58:23.664Z,72
2017-04-08T04:59:25.087Z,80
2017-04-08T05:00:26.531Z,88
2017-04-08T05:01:27.962Z,92
2017-04-08T05:02:29.395Z,100
2017-04-08T05:03:30.819Z,104
2017-04-08T05:04:32.256Z,112
2017-04-08T05:05:33.686Z,116
2017-04-08T05:06:35.116Z,124
2017-04-08T05:07:36.582Z,132
2017-04-08T05:08:38.020Z,140
2017-04-08T05:09:39.444Z,152
2017-04-08T05:10:40.875Z,160
2017-04-08T05:11:42.309Z,172
2017-04-08T05:12:43.742Z,180
2017-04-08T05:13:46.118Z,184
2017-04-08T05:14:47.550Z,192
2017-04-08T05:15:48.998Z,200
2017-04-08T05:16:50.428Z,208
2017-04-08T05:17:51.852Z,216
2017-04-08T05:18:53.287Z,220
2017-04-08T05:19:54.720Z,220
2017-04-08T05:20:56.149Z,224
2017-04-08T05:21:57.582Z,220
2017-04-08T05:22:59.009Z,224
2017-04-08T05:24:00.430Z,232
2017-04-08T05:25:01.865Z,240
2017-04-08T05:26:03.296Z,244
2017-04-08T05:27:04.724Z,256
2017-04-08T05:28:06.158Z,264
2017-04-08T05:29:07.587Z,272
2017-04-08T05:30:09.018Z,284
2017-04-08T05:31:10.445Z,296
2017-04-08T05:32:11.869Z,304
2017-04-08T05:33:13.299Z,312
2017-04-08T05:34:14.731Z,316
2017-04-08T05:35:16.159Z,324
2017-04-08T05:36:17.594Z,328
2017-04-08T05:37:19.024Z,332
2017-04-08T05:38:20.454Z,348
2017-04-08T05:39:21.889Z,356
2017-04-08T05:40:23.321Z,364
2017-04-08T05:41:24.762Z,368
2017-04-08T05:42:26.198Z,380
2017-04-08T05:43:27.619Z,392
2017-04-08T05:44:29.051Z,400
2017-04-08T05:45:30.478Z,416
2017-04-08T05:46:31.913Z,424
2017-04-08T05:47:33.343Z,436
2017-04-08T05:48:34.774Z,440
2017-04-08T05:49:36.200Z,444
2017-04-08T05:50:37.635Z,456
2017-04-08T05:51:39.073Z,460
2017-04-08T05:52:40.508Z,464
2017-04-08T05:53:41.943Z,464
2017-04-08T05:54:43.364Z,464
2017-04-08T05:55:44.835Z,468
2017-04-08T05:56:46.273Z,468
2017-04-08T05:57:47.710Z,440
2017-04-08T05:58:49.140Z,384
2017-04-08T05:59:50.573Z,364
2017-04-08T06:00:52.004Z,368
2017-04-08T06:01:53.436Z,384
2017-04-08T06:02:54.866Z,404
2017-04-08T06:03:56.300Z,428
2017-04-08T06:04:57.742Z,456
2017-04-08T06:05:59.171Z,496
2017-04-08T06:07:00.595Z,548
2017-04-08T06:08:03.187Z,580
2017-04-08T06:09:04.622Z,608
2017-04-08T06:10:06.064Z,628
2017-04-08T06:11:07.489Z,644
2017-04-08T06:12:08.928Z,640
2017-04-08T06:13:10.350Z,640
2017-04-08T06:14:11.784Z,644
2017-04-08T06:15:13.218Z,644
2017-04-08T06:16:14.643Z,624
2017-04-08T06:17:16.103Z,620
2017-04-08T06:18:17.497Z,624
2017-04-08T06:19:18.922Z,648
2017-04-08T06:20:20.352Z,684
2017-04-08T06:21:21.781Z,708
2017-04-08T06:22:23.216Z,732
2017-04-08T06:23:24.643Z,764
2017-04-08T06:24:26.077Z,780
2017-04-08T06:25:27.516Z,804
2017-04-08T06:26:28.943Z,820
2017-04-08T06:27:30.369Z,832
2017-04-08T06:28:31.798Z,840
2017-04-08T06:29:33.234Z,868
2017-04-08T06:30:34.660Z,884
2017-04-08T06:31:36.086Z,872
2017-04-08T06:32:37.521Z,860
2017-04-08T06:33:38.945Z,876
2017-04-08T06:34:40.379Z,896
2017-04-08T06:35:41.817Z,904
2017-04-08T06:36:43.258Z,880
2017-04-08T06:37:44.680Z,824
2017-04-08T06:38:46.126Z,668
2017-04-08T06:39:47.562Z,516
2017-04-08T06:40:48.995Z,432
2017-04-08T06:41:50.428Z,420
2017-04-08T06:42:51.857Z,404
2017-04-08T06:43:53.294Z,364
2017-04-08T06:44:54.717Z,360
2017-04-08T06:45:56.157Z,400
2017-04-08T06:46:57.584Z,456
2017-04-08T06:47:59.019Z,500
2017-04-08T06:49:00.479Z,580
2017-04-08T06:50:01.879Z,656
2017-04-08T06:51:03.315Z,728
2017-04-08T06:52:04.748Z,796
2017-04-08T06:53:06.182Z,860
2017-04-08T06:54:07.619Z,924
2017-04-08T06:55:09.047Z,984
2017-04-08T06:56:10.481Z,1024
2017-04-08T06:57:12.697Z,1032
2017-04-08T06:58:13.295Z,996
2017-04-08T06:59:14.738Z,948
2017-04-08T07:00:16.164Z,900
2017-04-08T07:01:17.600Z,900
2017-04-08T07:02:19.031Z,944
2017-04-08T07:03:20.463Z,984
2017-04-08T07:04:21.895Z,988
2017-04-08T07:05:23.326Z,944
2017-04-08T07:06:24.753Z,872
2017-04-08T07:07:26.183Z,844
2017-04-08T07:08:27.626Z,920
2017-04-08T07:09:29.051Z,1040
2017-04-08T07:10:30.483Z,1148
2017-04-08T07:11:31.916Z,1192
2017-04-08T07:12:33.343Z,1180
2017-04-08T07:13:34.779Z,1164
2017-04-08T07:14:36.217Z,1124
2017-04-08T07:15:37.642Z,1096
2017-04-08T07:16:39.078Z,1148
2017-04-08T07:17:40.509Z,1276
2017-04-08T07:18:41.948Z,1380
2017-04-08T07:19:43.378Z,1424
2017-04-08T07:20:44.815Z,1496
2017-04-08T07:21:46.257Z,1516
2017-04-08T07:22:47.685Z,1504
2017-04-08T07:23:49.122Z,1472
2017-04-08T07:24:50.555Z,1456
2017-04-08T07:25:51.995Z,1468
2017-04-08T07:26:53.427Z,1488
2017-04-08T07:27:54.866Z,1520
2017-04-08T07:28:56.298Z,1552
2017-04-08T07:29:57.725Z,1596
2017-04-08T07:30:59.169Z,1644
2017-04-08T07:32:00.617Z,1664
2017-04-08T07:33:02.045Z,1664
2017-04-08T07:34:03.478Z,1644
2017-04-08T07:35:04.922Z,1624
2017-04-08T07:36:06.356Z,1616
2017-04-08T07:37:07.777Z,1616
2017-04-08T07:38:09.214Z,1604
2017-04-08T07:39:10.645Z,1604
2017-04-08T07:40:12.081Z,1600
2017-04-08T07:41:13.509Z,1592
2017-04-08T07:42:14.935Z,1600
2017-04-08T07:43:16.381Z,1632
2017-04-08T07:44:17.811Z,1672
2017-04-08T07:45:19.248Z,1736
2017-04-08T07:46:20.676Z,1824
2017-04-08T07:47:22.112Z,1888
2017-04-08T07:48:23.546Z,1964
2017-04-08T07:49:24.982Z,2028
2017-04-08T07:50:26.412Z,2064
2017-04-08T07:51:27.849Z,2024
2017-04-08T07:52:29.277Z,1992
2017-04-08T07:53:30.708Z,1952
2017-04-08T07:54:32.138Z,1920
2017-04-08T07:55:33.577Z,1876
2017-04-08T07:56:35.021Z,1864
2017-04-08T07:57:36.449Z,1888
2017-04-08T07:58:37.895Z,1928
2017-04-08T07:59:40.624Z,2004
2017-04-08T08:00:42.058Z,2072
2017-04-08T08:01:43.494Z,2136
2017-04-08T08:02:44.931Z,2232
2017-04-08T08:03:46.359Z,2292
2017-04-08T08:04:47.793Z,2344
2017-04-08T08:05:49.228Z,2432
2017-04-08T08:06:50.678Z,2464
2017-04-08T08:07:52.107Z,2496
2017-04-08T08:08:53.555Z,2512
2017-04-08T08:09:56.908Z,2540
2017-04-08T08:10:58.348Z,2600
2017-04-08T08:11:59.793Z,2628
2017-04-08T08:13:01.238Z,2632
2017-04-08T08:14:02.687Z,2600
2017-04-08T08:15:04.117Z,2560
2017-04-08T08:16:05.552Z,2592
2017-04-08T08:17:07.551Z,2640
2017-04-08T08:18:08.367Z,2728
2017-04-08T08:19:09.807Z,2792
2017-04-08T08:20:11.233Z,2864
2017-04-08T08:21:12.666Z,2908
2017-04-08T08:22:14.094Z,2884
2017-04-08T08:23:16.355Z,2852
2017-04-08T08:24:17.794Z,2796
2017-04-08T08:25:19.228Z,2776
2017-04-08T08:26:20.662Z,2780
2017-04-08T08:27:22.106Z,2772
2017-04-08T08:28:23.537Z,2756
2017-04-08T08:29:24.977Z,2804
2017-04-08T08:30:26.469Z,2820
2017-04-08T08:31:27.910Z,2832
2017-04-08T08:32:29.345Z,2852
2017-04-08T08:33:30.770Z,2928
2017-04-08T08:34:32.275Z,2976
2017-04-08T08:35:33.708Z,3036
2017-04-08T08:36:35.149Z,3092
2017-04-08T08:37:36.603Z,3068
2017-04-08T08:38:38.042Z,3104
2017-04-08T08:39:39.473Z,3124
2017-04-08T08:40:40.910Z,3144
2017-04-08T08:41:42.369Z,3144
2017-04-08T08:42:43.803Z,3156
2017-04-08T08:43:45.235Z,3196
2017-04-08T08:44:46.675Z,3248
2017-04-08T08:45:48.110Z,3256
2017-04-08T08:46:49.545Z,3280
2017-04-08T08:47:50.972Z,3288
2017-04-08T08:48:52.419Z,3344
2017-04-08T08:49:53.853Z,3368
2017-04-08T08:50:55.286Z,3360
2017-04-08T08:51:56.725Z,3348
2017-04-08T08:52:58.171Z,3376
2017-04-08T08:53:59.597Z,3436
2017-04-08T08:55:01.031Z,3484
2017-04-08T08:56:02.569Z,3472
2017-04-08T08:57:03.999Z,3480
2017-04-08T08:58:05.425Z,3504
2017-04-08T08:59:06.855Z,3540
2017-04-08T09:00:08.346Z,3584
2017-04-08T09:01:09.775Z,3592
2017-04-08T09:02:11.212Z,3604
2017-04-08T09:03:12.649Z,3668
2017-04-08T09:04:14.092Z,3672
2017-04-08T09:05:15.533Z,3704
2017-04-08T09:06:16.971Z,3704
2017-04-08T09:07:18.408Z,3696
2017-04-08T09:08:19.897Z,3712
2017-04-08T09:09:21.335Z,3716
2017-04-08T09:10:22.776Z,3708
2017-04-08T09:11:24.228Z,3672
2017-04-08T09:12:25.660Z,3664
2017-04-08T09:13:27.096Z,3716
2017-04-08T09:14:28.536Z,3780
2017-04-08T09:15:29.966Z,3828
2017-04-08T09:16:31.411Z,3868
2017-04-08T09:17:32.851Z,3900
2017-04-08T09:18:34.289Z,3904
2017-04-08T09:19:35.738Z,3924
2017-04-08T09:20:37.166Z,3944
2017-04-08T09:21:38.604Z,3960
2017-04-08T09:22:40.115Z,3992
2017-04-08T09:23:41.547Z,4056
2017-04-08T09:24:42.995Z,4092
2017-04-08T09:25:44.434Z,4056
2017-04-08T09:26:45.865Z,4056
2017-04-08T09:27:47.309Z,4160
2017-04-08T09:28:48.743Z,4236
2017-04-08T09:29:50.233Z,4284
2017-04-08T09:30:51.670Z,4312
2017-04-08T09:31:53.129Z,4296
2017-04-08T09:32:54.545Z,4140
2017-04-08T09:33:55.978Z,3960
2017-04-08T09:34:57.422Z,3892
2017-04-08T09:35:58.851Z,4004
2017-04-08T09:37:00.306Z,4096
2017-04-08T09:38:01.735Z,4276
2017-04-08T09:39:03.169Z,4208
2017-04-08T09:40:04.610Z,4004
2017-04-08T09:41:06.112Z,3868
2017-04-08T09:42:07.546Z,3696
2017-04-08T09:43:08.986Z,3632
2017-04-08T09:44:10.418Z,3508
2017-04-08T09:45:11.874Z,3396
2017-04-08T09:46:14.539Z,3444
2017-04-08T09:47:15.981Z,3492
2017-04-08T09:48:17.418Z,3524
2017-04-08T09:49:18.855Z,3616
2017-04-08T09:50:20.289Z,3740
2017-04-08T09:51:21.736Z,3840
2017-04-08T09:52:23.170Z,3780
2017-04-08T09:53:24.601Z,3604
2017-04-08T09:54:26.031Z,3568
2017-04-08T09:55:27.481Z,3624
2017-04-08T09:56:28.909Z,3684
2017-04-08T09:57:30.351Z,3636
2017-04-08T09:58:31.786Z,3564
2017-04-08T09:59:33.226Z,3460
2017-04-08T10:00:35.217Z,3488
2017-04-08T10:01:36.654Z,3408
2017-04-08T10:02:38.093Z,3356
2017-04-08T10:03:39.527Z,3324
2017-04-08T10:04:40.968Z,3372
2017-04-08T10:05:42.426Z,3444
2017-04-08T10:06:43.840Z,3424
2017-04-08T10:07:45.268Z,3372
2017-04-08T10:08:46.710Z,3412
2017-04-08T10:09:48.146Z,3320
2017-04-08T10:10:49.589Z,3312
2017-04-08T10:11:51.026Z,3300
2017-04-08T10:12:52.474Z,3268
2017-04-08T10:13:53.910Z,3428
2017-04-08T10:14:55.347Z,3644
2017-04-08T10:15:56.780Z,3772
2017-04-08T10:16:58.209Z,3928
2017-04-08T10:17:59.645Z,3948
2017-04-08T10:19:01.075Z,3796
2017-04-08T10:20:02.508Z,3716
2017-04-08T10:21:03.947Z,3628
2017-04-08T10:22:05.387Z,3524
2017-04-08T10:23:06.813Z,3436
2017-04-08T10:24:08.255Z,3480
2017-04-08T10:25:09.695Z,3412
2017-04-08T10:26:11.125Z,3260
2017-04-08T10:27:14.043Z,3156
2017-04-08T10:28:15.507Z,3068
2017-04-08T10:29:16.941Z,2980
2017-04-08T10:30:18.384Z,2832
2017-04-08T10:31:19.818Z,2708
2017-04-08T10:32:21.267Z,2620
2017-04-08T10:33:22.697Z,2536
2017-04-08T10:34:24.142Z,2476
2017-04-08T10:35:25.586Z,2408
2017-04-08T10:36:27.021Z,2348
2017-04-08T10:37:28.459Z,2328
2017-04-08T10:38:29.904Z,2328
2017-04-08T10:39:31.344Z,2320
2017-04-08T10:40:32.775Z,2276
2017-04-08T10:41:34.218Z,2300
2017-04-08T10:42:35.651Z,2328
2017-04-08T10:43:37.101Z,2352
2017-04-08T10:44:38.533Z,2364
2017-04-08T10:45:39.968Z,2376
2017-04-08T10:46:41.410Z,2404
2017-04-08T10:47:42.840Z,2520
2017-04-08T10:48:44.322Z,2648
2017-04-08T10:49:45.763Z,2808
2017-04-08T10:50:47.195Z,3008
2017-04-08T10:51:48.631Z,3268
2017-04-08T10:52:50.132Z,3572
2017-04-08T10:53:51.569Z,3808
2017-04-08T10:54:53.001Z,4016
2017-04-08T10:55:54.475Z,4200
2017-04-08T10:56:55.912Z,4432
2017-04-08T10:57:57.350Z,4736
2017-04-08T10:58:58.786Z,5024
2017-04-08T11:00:00.217Z,5276
2017-04-08T11:01:01.661Z,5484
2017-04-08T11:02:03.103Z,5600
2017-04-08T11:03:04.587Z,5644
2017-04-08T11:04:06.031Z,5652
2017-04-08T11:05:07.477Z,5516
2017-04-08T11:06:08.915Z,5136
2017-04-08T11:07:10.369Z,4688
2017-04-08T11:08:11.816Z,4440
2017-04-08T11:09:13.245Z,4344
2017-04-08T11:10:14.695Z,4292
2017-04-08T11:11:16.129Z,4272
2017-04-08T11:12:17.555Z,4232
2017-04-08T11:13:19.353Z,4156
2017-04-08T11:14:20.763Z,4044
2017-04-08T11:15:22.218Z,3924
2017-04-08T11:16:23.652Z,3904
2017-04-08T11:17:25.796Z,3916
2017-04-08T11:18:27.233Z,3916
2017-04-08T11:19:28.664Z,3920
2017-04-08T11:20:30.098Z,3936
2017-04-08T11:21:31.537Z,3904
2017-04-08T11:22:32.971Z,3904
2017-04-08T11:23:34.414Z,3908
2017-04-08T11:24:35.852Z,3892
2017-04-08T11:25:37.287Z,3888
2017-04-08T11:26:38.724Z,3900
2017-04-08T11:27:40.160Z,3920
2017-04-08T11:28:41.601Z,3904
2017-04-08T11:29:43.034Z,3872
2017-04-08T11:30:45.052Z,3892
2017-04-08T11:31:46.492Z,3920
2017-04-08T11:32:47.921Z,3900
2017-04-08T11:33:49.362Z,3900
2017-04-08T11:34:50.800Z,4000
2017-04-08T11:35:52.236Z,4152
2017-04-08T11:36:53.670Z,4380
2017-04-08T11:37:55.105Z,4568
2017-04-08T11:38:56.551Z,4660
2017-04-08T11:39:57.988Z,4772
2017-04-08T11:40:59.420Z,4984
2017-04-08T11:42:00.861Z,5240
2017-04-08T11:43:03.943Z,5452
2017-04-08T11:44:05.389Z,5576
2017-04-08T11:45:06.821Z,5760
2017-04-08T11:46:08.249Z,5612
2017-04-08T11:47:09.684Z,5464
2017-04-08T11:48:11.117Z,5288
2017-04-08T11:49:12.555Z,5056
2017-04-08T11:50:14.003Z,4820
2017-04-08T11:51:15.437Z,4600
2017-04-08T11:52:16.875Z,4448
2017-04-08T11:53:18.315Z,4380
2017-04-08T11:54:19.745Z,4408
2017-04-08T11:55:21.182Z,4432
2017-04-08T11:56:22.618Z,4520
2017-04-08T11:57:24.063Z,4596
2017-04-08T11:58:25.495Z,4636
2017-04-08T11:59:26.930Z,4620
2017-04-08T12:00:28.367Z,4696
2017-04-08T12:01:29.802Z,4896
2017-04-08T12:02:31.234Z,5028
2017-04-08T12:03:32.663Z,5136
2017-04-08T12:04:34.107Z,5220
2017-04-08T12:05:35.542Z,5300
2017-04-08T12:06:36.968Z,5336
2017-04-08T12:07:38.404Z,5204
2017-04-08T12:08:39.853Z,4948
2017-04-08T12:09:41.283Z,5220
2017-04-08T12:10:42.726Z,4360
2017-04-08T12:11:44.247Z,4260
2017-04-08T12:12:45.686Z,2524
2017-04-08T12:13:47.128Z,3776
2017-04-08T12:14:48.564Z,3892
2017-04-08T12:15:50.030Z,3868
2017-04-08T12:16:51.463Z,3880
2017-04-08T12:17:52.905Z,3860
2017-04-08T12:18:54.367Z,3888
2017-04-08T12:19:55.803Z,3920
2017-04-08T12:20:57.238Z,4028
2017-04-08T12:21:58.673Z,4120
2017-04-08T12:23:00.105Z,4164
2017-04-08T12:24:01.542Z,4156
2017-04-08T12:25:02.982Z,4136
2017-04-08T12:26:04.427Z,4160
2017-04-08T12:27:05.967Z,4220
2017-04-08T12:28:07.406Z,4236
2017-04-08T12:29:08.849Z,2864
2017-04-08T12:30:10.289Z,4180
2017-04-08T12:31:11.729Z,4176
2017-04-08T12:32:13.169Z,4168
2017-04-08T12:33:14.611Z,4116
2017-04-08T12:34:16.055Z,4112
2017-04-08T12:35:17.497Z,4156
2017-04-08T12:36:18.933Z,4212
2017-04-08T12:37:20.375Z,4292
2017-04-08T12:38:21.815Z,4484
2017-04-08T12:39:23.249Z,4620
2017-04-08T12:40:24.704Z,4732
2017-04-08T12:41:26.137Z,4856
2017-04-08T12:42:27.578Z,4852
2017-04-08T12:43:29.017Z,4732
2017-04-08T12:44:30.464Z,4724
2017-04-08T12:45:31.903Z,4644
2017-04-08T12:46:33.329Z,4568
2017-04-08T12:47:34.790Z,4372
2017-04-08T12:48:36.274Z,4436
2017-04-08T12:49:37.707Z,4644
2017-04-08T12:50:39.136Z,4848
2017-04-08T12:51:40.577Z,4944
2017-04-08T12:52:42.033Z,4996
2017-04-08T12:53:43.468Z,4644
2017-04-08T12:54:44.904Z,5212
2017-04-08T12:55:46.352Z,5300
2017-04-08T12:56:47.795Z,5400
2017-04-08T12:57:49.226Z,5584
2017-04-08T12:58:50.672Z,5920
2017-04-08T12:59:52.107Z,6348
2017-04-08T13:00:53.540Z,6828
2017-04-08T13:01:55.677Z,7292
2017-04-08T13:02:57.753Z,7684
2017-04-08T13:03:59.188Z,8140
2017-04-08T13:05:00.629Z,8560
2017-04-08T13:06:02.067Z,9080
2017-04-08T13:07:03.505Z,9380
2017-04-08T13:08:04.942Z,9652
2017-04-08T13:09:06.376Z,9816
2017-04-08T13:10:07.805Z,10048
2017-04-08T13:11:09.246Z,10128
2017-04-08T13:12:10.695Z,10496
2017-04-08T13:13:12.134Z,11212
2017-04-08T13:14:13.572Z,11600
2017-04-08T13:15:15.022Z,12196
2017-04-08T13:16:16.460Z,11852
2017-04-08T13:17:17.901Z,11736
2017-04-08T13:18:19.340Z,11652
2017-04-08T13:19:20.775Z,12984
2017-04-08T13:20:22.221Z,13788
2017-04-08T13:21:23.666Z,13984
2017-04-08T13:22:25.097Z,14304
2017-04-08T13:23:26.544Z,26816
2017-04-08T13:24:27.996Z,52480
2017-04-08T13:25:29.451Z,50752
2017-04-08T13:26:30.891Z,37888
2017-04-08T13:27:32.330Z,10536
2017-04-08T13:28:33.763Z,10212
2017-04-08T13:29:35.197Z,9724
2017-04-08T13:30:36.641Z,9884
2017-04-08T13:31:38.090Z,10796
2017-04-08T13:32:39.525Z,12028
2017-04-08T13:33:40.971Z,26464
2017-04-08T13:34:42.414Z,19776
2017-04-08T13:35:43.856Z,34272
2017-04-08T13:36:45.290Z,44448
2017-04-08T13:37:46.729Z,43712
2017-04-08T13:38:48.174Z,40416
2017-04-08T13:39:49.620Z,38400
2017-04-08T13:40:51.057Z,38976
2017-04-08T13:41:52.498Z,21824
2017-04-08T13:42:53.941Z,38688
2017-04-08T13:43:55.382Z,46336
2017-04-08T13:44:56.823Z,25696
2017-04-08T13:45:58.270Z,17568
2017-04-08T13:46:59.707Z,13940
2017-04-08T13:48:01.165Z,14140
2017-04-08T13:49:02.601Z,16180
2017-04-08T13:50:04.052Z,17056
2017-04-08T13:51:05.493Z,17056
2017-04-08T13:52:06.930Z,14792
2017-04-08T13:53:08.369Z,12864
2017-04-08T13:54:09.808Z,16216
2017-04-08T13:55:11.279Z,13000
2017-04-08T13:56:12.714Z,13032
2017-04-08T13:57:14.696Z,12848
2017-04-08T13:58:15.529Z,12640
2017-04-08T13:59:16.969Z,12236
2017-04-08T14:00:18.408Z,11932
2017-04-08T14:01:19.845Z,11600
2017-04-08T14:02:21.284Z,11744
2017-04-08T14:03:22.721Z,12168
2017-04-08T14:04:24.964Z,12316
2017-04-08T14:05:26.399Z,12076
2017-04-08T14:06:27.934Z,12064
2017-04-08T14:07:29.383Z,12084
2017-04-08T14:08:30.839Z,11944